sensor_id;sensor_type;location;lat;lon;timestamp;pressure;altitude;pressure_sealevel;temperature;humidity
16461;BME280;8341;42.048;24.650;2022-08-20T00:00:09;96809.75;;;25.25;52.36
16461;BME280;8341;42.048;24.650;2022-08-20T00:02:40;96806.44;;;25.36;51.96
16461;BME280;8341;42.048;24.650;2022-08-20T00:05:08;96814.03;;;25.26;52.81
16461;BME280;8341;42.048;24.650;2022-08-20T00:07:34;96808.59;;;25.28;51.98
16461;BME280;8341;42.048;24.650;2022-08-20T00:10:02;96812.56;;;25.25;52.18
16461;BME280;8341;42.048;24.650;2022-08-20T00:12:30;96812.41;;;25.23;52.13
16461;BME280;8341;42.048;24.650;2022-08-20T00:14:58;96816.06;;;25.16;52.16
16461;BME280;8341;42.048;24.650;2022-08-20T00:17:25;96820.13;;;25.06;52.49
16461;BME280;8341;42.048;24.650;2022-08-20T00:19:53;96807.06;;;25.08;51.79
16461;BME280;8341;42.048;24.650;2022-08-20T00:22:20;96808.50;;;25.09;52.35
16461;BME280;8341;42.048;24.650;2022-08-20T00:24:46;96809.53;;;25.04;52.36
16461;BME280;8341;42.048;24.650;2022-08-20T00:27:13;96802.94;;;25.09;53.21
16461;BME280;8341;42.048;24.650;2022-08-20T00:29:40;96810.41;;;25.07;53.21
16461;BME280;8341;42.048;24.650;2022-08-20T00:32:08;96799.69;;;25.03;54.07
16461;BME280;8341;42.048;24.650;2022-08-20T00:34:35;96801.16;;;25.04;54.06
16461;BME280;8341;42.048;24.650;2022-08-20T00:37:02;96796.13;;;24.93;54.51
16461;BME280;8341;42.048;24.650;2022-08-20T00:39:29;96802.13;;;24.89;53.81
16461;BME280;8341;42.048;24.650;2022-08-20T00:41:55;96801.06;;;24.85;54.08
16461;BME280;8341;42.048;24.650;2022-08-20T00:44:23;96805.66;;;24.90;53.49
16461;BME280;8341;42.048;24.650;2022-08-20T00:46:52;96804.00;;;24.87;54.07
16461;BME280;8341;42.048;24.650;2022-08-20T00:49:23;96797.06;;;24.78;53.88
16461;BME280;8341;42.048;24.650;2022-08-20T00:51:56;96787.06;;;24.75;54.53
16461;BME280;8341;42.048;24.650;2022-08-20T00:54:27;96794.81;;;24.77;54.26
16461;BME280;8341;42.048;24.650;2022-08-20T00:56:57;96798.63;;;24.72;53.42
16461;BME280;8341;42.048;24.650;2022-08-20T00:59:27;96797.13;;;24.44;54.41
16461;BME280;8341;42.048;24.650;2022-08-20T01:01:55;96793.66;;;24.53;54.09
16461;BME280;8341;42.048;24.650;2022-08-20T01:04:26;96791.75;;;24.56;53.73
16461;BME280;8341;42.048;24.650;2022-08-20T01:06:54;96784.91;;;24.40;55.01
16461;BME280;8341;42.048;24.650;2022-08-20T01:09:22;96794.28;;;24.17;55.66
16461;BME280;8341;42.048;24.650;2022-08-20T01:11:49;96780.09;;;24.23;55.95
16461;BME280;8341;42.048;24.650;2022-08-20T01:14:16;96793.28;;;24.22;56.62
16461;BME280;8341;42.048;24.650;2022-08-20T01:16:58;96789.66;;;24.29;56.00
16461;BME280;8341;42.048;24.650;2022-08-20T01:19:38;96788.38;;;24.31;55.70
16461;BME280;8341;42.048;24.650;2022-08-20T01:22:07;96767.38;;;24.29;55.95
16461;BME280;8341;42.048;24.650;2022-08-20T01:24:49;96776.38;;;24.38;55.53
16461;BME280;8341;42.048;24.650;2022-08-20T01:27:20;96772.38;;;24.31;55.01
16461;BME280;8341;42.048;24.650;2022-08-20T01:29:47;96766.41;;;24.17;55.48
16461;BME280;8341;42.048;24.650;2022-08-20T01:32:15;96774.69;;;24.25;54.88
16461;BME280;8341;42.048;24.650;2022-08-20T01:34:41;96766.06;;;24.31;55.21
16461;BME280;8341;42.048;24.650;2022-08-20T01:37:08;96772.28;;;24.39;55.04
16461;BME280;8341;42.048;24.650;2022-08-20T01:39:35;96776.06;;;24.34;56.28
16461;BME280;8341;42.048;24.650;2022-08-20T01:42:06;96779.59;;;24.34;56.98
16461;BME280;8341;42.048;24.650;2022-08-20T01:44:36;96773.78;;;24.22;57.11
16461;BME280;8341;42.048;24.650;2022-08-20T01:47:12;96778.22;;;24.25;56.86
16461;BME280;8341;42.048;24.650;2022-08-20T01:49:41;96787.72;;;24.22;56.52
16461;BME280;8341;42.048;24.650;2022-08-20T01:52:11;96781.34;;;24.12;56.00
16461;BME280;8341;42.048;24.650;2022-08-20T01:54:40;96777.72;;;24.19;56.28
16461;BME280;8341;42.048;24.650;2022-08-20T01:57:11;96785.47;;;24.04;56.98
16461;BME280;8341;42.048;24.650;2022-08-20T01:59:40;96786.66;;;24.01;56.91
16461;BME280;8341;42.048;24.650;2022-08-20T02:02:08;96790.84;;;24.09;56.06
16461;BME280;8341;42.048;24.650;2022-08-20T02:04:35;96795.41;;;24.14;57.04
16461;BME280;8341;42.048;24.650;2022-08-20T02:07:04;96785.59;;;24.13;55.57
16461;BME280;8341;42.048;24.650;2022-08-20T02:09:34;96792.31;;;24.10;56.24
16461;BME280;8341;42.048;24.650;2022-08-20T02:12:02;96788.56;;;24.15;55.49
16461;BME280;8341;42.048;24.650;2022-08-20T02:14:30;96792.53;;;24.22;56.63
16461;BME280;8341;42.048;24.650;2022-08-20T02:16:59;96784.69;;;24.28;56.41
16461;BME280;8341;42.048;24.650;2022-08-20T02:19:28;96790.56;;;24.32;57.73
16461;BME280;8341;42.048;24.650;2022-08-20T02:22:00;96788.69;;;24.17;55.89
16461;BME280;8341;42.048;24.650;2022-08-20T02:24:28;96789.44;;;24.01;57.43
16461;BME280;8341;42.048;24.650;2022-08-20T02:26:55;96783.53;;;23.97;57.48
16461;BME280;8341;42.048;24.650;2022-08-20T02:29:22;96784.91;;;23.88;57.62
16461;BME280;8341;42.048;24.650;2022-08-20T02:31:50;96778.53;;;23.95;57.21
16461;BME280;8341;42.048;24.650;2022-08-20T02:34:19;96787.69;;;23.88;57.20
16461;BME280;8341;42.048;24.650;2022-08-20T02:36:46;96780.66;;;23.87;57.39
16461;BME280;8341;42.048;24.650;2022-08-20T02:39:14;96780.25;;;23.91;57.66
16461;BME280;8341;42.048;24.650;2022-08-20T02:41:41;96774.59;;;23.98;57.39
16461;BME280;8341;42.048;24.650;2022-08-20T02:44:08;96774.78;;;24.00;57.57
16461;BME280;8341;42.048;24.650;2022-08-20T02:46:35;96779.34;;;24.05;58.01
16461;BME280;8341;42.048;24.650;2022-08-20T02:49:03;96778.84;;;23.99;58.59
16461;BME280;8341;42.048;24.650;2022-08-20T02:51:31;96782.78;;;23.96;58.51
16461;BME280;8341;42.048;24.650;2022-08-20T02:53:58;96779.34;;;23.88;58.41
16461;BME280;8341;42.048;24.650;2022-08-20T02:56:25;96774.50;;;23.89;58.24
16461;BME280;8341;42.048;24.650;2022-08-20T02:58:52;96772.47;;;23.89;58.22
16461;BME280;8341;42.048;24.650;2022-08-20T03:01:19;96765.75;;;23.92;56.69
16461;BME280;8341;42.048;24.650;2022-08-20T03:03:46;96762.22;;;23.75;57.40
16461;BME280;8341;42.048;24.650;2022-08-20T03:06:13;96759.69;;;23.52;59.06
16461;BME280;8341;42.048;24.650;2022-08-20T03:08:42;96760.72;;;23.32;59.70
16461;BME280;8341;42.048;24.650;2022-08-20T03:11:09;96773.31;;;23.16;60.29
16461;BME280;8341;42.048;24.650;2022-08-20T03:13:37;96765.75;;;23.08;60.54
16461;BME280;8341;42.048;24.650;2022-08-20T03:16:04;96765.66;;;23.24;61.45
16461;BME280;8341;42.048;24.650;2022-08-20T03:18:33;96769.34;;;23.26;62.13
16461;BME280;8341;42.048;24.650;2022-08-20T03:21:01;96766.56;;;23.26;62.14
16461;BME280;8341;42.048;24.650;2022-08-20T03:23:29;96772.19;;;23.19;61.72
16461;BME280;8341;42.048;24.650;2022-08-20T03:25:58;96781.97;;;23.20;63.12
16461;BME280;8341;42.048;24.650;2022-08-20T03:28:26;96781.19;;;23.27;62.32
16461;BME280;8341;42.048;24.650;2022-08-20T03:30:53;96778.41;;;23.27;62.02
16461;BME280;8341;42.048;24.650;2022-08-20T03:33:21;96781.00;;;23.25;60.28
16461;BME280;8341;42.048;24.650;2022-08-20T03:35:48;96782.66;;;23.28;60.65
16461;BME280;8341;42.048;24.650;2022-08-20T03:38:16;96789.09;;;23.38;61.66
16461;BME280;8341;42.048;24.650;2022-08-20T03:40:43;96784.59;;;23.18;60.61
16461;BME280;8341;42.048;24.650;2022-08-20T03:43:12;96780.22;;;23.07;61.26
16461;BME280;8341;42.048;24.650;2022-08-20T03:45:41;96781.69;;;22.83;62.26
16461;BME280;8341;42.048;24.650;2022-08-20T03:48:10;96775.84;;;22.96;62.61
16461;BME280;8341;42.048;24.650;2022-08-20T03:50:38;96779.44;;;22.89;62.32
16461;BME280;8341;42.048;24.650;2022-08-20T03:53:07;96775.09;;;22.96;62.16
16461;BME280;8341;42.048;24.650;2022-08-20T03:55:34;96780.63;;;23.03;62.28
16461;BME280;8341;42.048;24.650;2022-08-20T03:58:05;96778.66;;;23.21;62.06
16461;BME280;8341;42.048;24.650;2022-08-20T04:00:36;96780.78;;;23.30;62.55
16461;BME280;8341;42.048;24.650;2022-08-20T04:03:04;96787.25;;;23.33;62.96
16461;BME280;8341;42.048;24.650;2022-08-20T04:05:35;96791.81;;;23.45;62.65
16461;BME280;8341;42.048;24.650;2022-08-20T04:08:03;96786.75;;;23.51;62.48
16461;BME280;8341;42.048;24.650;2022-08-20T04:10:31;96783.75;;;23.57;62.17
16461;BME280;8341;42.048;24.650;2022-08-20T04:12:58;96785.78;;;23.56;61.67
16461;BME280;8341;42.048;24.650;2022-08-20T04:15:25;96779.56;;;23.65;61.49
16461;BME280;8341;42.048;24.650;2022-08-20T04:17:53;96787.22;;;23.82;60.77
16461;BME280;8341;42.048;24.650;2022-08-20T04:20:22;96785.25;;;23.75;61.35
16461;BME280;8341;42.048;24.650;2022-08-20T04:22:50;96793.69;;;23.85;61.02
16461;BME280;8341;42.048;24.650;2022-08-20T04:25:18;96797.94;;;23.86;61.80
16461;BME280;8341;42.048;24.650;2022-08-20T04:27:46;96790.22;;;23.94;60.53
16461;BME280;8341;42.048;24.650;2022-08-20T04:30:16;96792.13;;;23.91;60.74
16461;BME280;8341;42.048;24.650;2022-08-20T04:32:43;96792.03;;;23.99;61.91
16461;BME280;8341;42.048;24.650;2022-08-20T04:35:13;96807.75;;;23.87;60.02
16461;BME280;8341;42.048;24.650;2022-08-20T04:37:42;96802.84;;;23.95;59.94
16461;BME280;8341;42.048;24.650;2022-08-20T04:40:14;96804.75;;;23.92;60.83
16461;BME280;8341;42.048;24.650;2022-08-20T04:42:58;96808.34;;;24.02;63.07
16461;BME280;8341;42.048;24.650;2022-08-20T04:45:25;96807.72;;;24.11;61.33
16461;BME280;8341;42.048;24.650;2022-08-20T04:47:52;96810.91;;;24.25;60.70
16461;BME280;8341;42.048;24.650;2022-08-20T04:50:21;96806.47;;;24.39;62.21
16461;BME280;8341;42.048;24.650;2022-08-20T04:52:48;96806.69;;;24.51;61.79
16461;BME280;8341;42.048;24.650;2022-08-20T04:55:16;96812.41;;;24.70;60.79
16461;BME280;8341;42.048;24.650;2022-08-20T04:57:43;96801.22;;;24.87;59.77
16461;BME280;8341;42.048;24.650;2022-08-20T05:00:14;96799.69;;;25.03;60.69
16461;BME280;8341;42.048;24.650;2022-08-20T05:02:42;96799.31;;;25.16;59.45
16461;BME280;8341;42.048;24.650;2022-08-20T05:05:09;96796.69;;;25.28;60.19
16461;BME280;8341;42.048;24.650;2022-08-20T05:07:39;96793.63;;;25.33;59.58
16461;BME280;8341;42.048;24.650;2022-08-20T05:10:08;96801.94;;;25.50;58.44
16461;BME280;8341;42.048;24.650;2022-08-20T05:12:35;96802.25;;;25.55;58.50
16461;BME280;8341;42.048;24.650;2022-08-20T05:15:03;96801.97;;;25.60;58.65
16461;BME280;8341;42.048;24.650;2022-08-20T05:17:30;96811.81;;;25.71;58.07
16461;BME280;8341;42.048;24.650;2022-08-20T05:19:57;96806.41;;;25.82;58.05
16461;BME280;8341;42.048;24.650;2022-08-20T05:22:24;96807.78;;;25.91;56.95
16461;BME280;8341;42.048;24.650;2022-08-20T05:24:53;96806.88;;;26.07;57.03
16461;BME280;8341;42.048;24.650;2022-08-20T05:27:23;96799.56;;;26.22;56.31
16461;BME280;8341;42.048;24.650;2022-08-20T05:29:52;96801.78;;;26.42;55.61
16461;BME280;8341;42.048;24.650;2022-08-20T05:32:20;96801.16;;;26.63;55.01
16461;BME280;8341;42.048;24.650;2022-08-20T05:34:47;96808.19;;;26.73;56.61
16461;BME280;8341;42.048;24.650;2022-08-20T05:37:14;96806.13;;;26.84;56.14
16461;BME280;8341;42.048;24.650;2022-08-20T05:39:42;96811.41;;;26.89;53.73
16461;BME280;8341;42.048;24.650;2022-08-20T05:42:10;96804.19;;;26.96;53.20
16461;BME280;8341;42.048;24.650;2022-08-20T05:44:37;96806.53;;;26.99;53.68
16461;BME280;8341;42.048;24.650;2022-08-20T05:47:05;96811.94;;;27.07;53.31
16461;BME280;8341;42.048;24.650;2022-08-20T05:49:32;96809.44;;;27.11;51.91
16461;BME280;8341;42.048;24.650;2022-08-20T05:51:59;96802.78;;;27.16;51.40
16461;BME280;8341;42.048;24.650;2022-08-20T05:54:26;96806.28;;;27.26;51.44
16461;BME280;8341;42.048;24.650;2022-08-20T05:56:53;96801.97;;;27.34;50.80
16461;BME280;8341;42.048;24.650;2022-08-20T05:59:22;96810.66;;;27.39;49.80
16461;BME280;8341;42.048;24.650;2022-08-20T06:01:50;96800.34;;;27.41;49.54
16461;BME280;8341;42.048;24.650;2022-08-20T06:04:17;96794.63;;;27.39;49.14
16461;BME280;8341;42.048;24.650;2022-08-20T06:06:51;96803.44;;;27.45;49.51
16461;BME280;8341;42.048;24.650;2022-08-20T06:09:20;96800.44;;;27.53;49.36
16461;BME280;8341;42.048;24.650;2022-08-20T06:11:47;96806.75;;;27.53;49.96
16461;BME280;8341;42.048;24.650;2022-08-20T06:14:14;96801.97;;;27.44;49.44
16461;BME280;8341;42.048;24.650;2022-08-20T06:16:43;96791.44;;;27.54;48.92
16461;BME280;8341;42.048;24.650;2022-08-20T06:19:10;96802.38;;;27.50;49.38
16461;BME280;8341;42.048;24.650;2022-08-20T06:21:38;96791.03;;;27.39;49.49
16461;BME280;8341;42.048;24.650;2022-08-20T06:24:06;96785.59;;;27.41;50.91
16461;BME280;8341;42.048;24.650;2022-08-20T06:26:33;96783.84;;;27.45;50.80
16461;BME280;8341;42.048;24.650;2022-08-20T06:29:00;96792.16;;;27.24;52.14
16461;BME280;8341;42.048;24.650;2022-08-20T06:31:27;96787.63;;;27.09;52.43
16461;BME280;8341;42.048;24.650;2022-08-20T06:33:55;96788.19;;;27.17;53.70
16461;BME280;8341;42.048;24.650;2022-08-20T06:36:22;96787.97;;;27.04;53.94
16461;BME280;8341;42.048;24.650;2022-08-20T06:38:49;96791.88;;;27.20;54.85
16461;BME280;8341;42.048;24.650;2022-08-20T06:41:16;96794.78;;;27.31;54.47
16461;BME280;8341;42.048;24.650;2022-08-20T06:43:43;96794.53;;;27.18;53.71
16461;BME280;8341;42.048;24.650;2022-08-20T06:46:10;96795.63;;;27.03;55.36
16461;BME280;8341;42.048;24.650;2022-08-20T06:48:37;96794.75;;;27.01;54.69
16461;BME280;8341;42.048;24.650;2022-08-20T06:51:05;96797.25;;;26.97;54.87
16461;BME280;8341;42.048;24.650;2022-08-20T06:53:34;96794.88;;;27.03;55.13
16461;BME280;8341;42.048;24.650;2022-08-20T06:56:01;96805.69;;;26.87;55.29
16461;BME280;8341;42.048;24.650;2022-08-20T06:58:28;96806.41;;;26.88;55.33
16461;BME280;8341;42.048;24.650;2022-08-20T07:00:57;96806.13;;;26.84;55.54
16461;BME280;8341;42.048;24.650;2022-08-20T07:03:25;96804.06;;;26.94;55.96
16461;BME280;8341;42.048;24.650;2022-08-20T07:05:52;96803.59;;;26.97;54.62
16461;BME280;8341;42.048;24.650;2022-08-20T07:08:21;96801.03;;;27.11;55.57
16461;BME280;8341;42.048;24.650;2022-08-20T07:10:48;96804.13;;;27.15;54.52
16461;BME280;8341;42.048;24.650;2022-08-20T07:13:16;96803.03;;;27.29;54.78
16461;BME280;8341;42.048;24.650;2022-08-20T07:15:43;96808.09;;;27.21;53.52
16461;BME280;8341;42.048;24.650;2022-08-20T07:18:11;96798.94;;;27.21;53.16
16461;BME280;8341;42.048;24.650;2022-08-20T07:20:38;96809.78;;;27.36;53.55
16461;BME280;8341;42.048;24.650;2022-08-20T07:23:06;96803.16;;;27.41;52.74
16461;BME280;8341;42.048;24.650;2022-08-20T07:25:38;96802.53;;;27.43;51.01
16461;BME280;8341;42.048;24.650;2022-08-20T07:28:07;96798.41;;;27.44;51.18
16461;BME280;8341;42.048;24.650;2022-08-20T07:30:34;96801.16;;;27.53;50.68
16461;BME280;8341;42.048;24.650;2022-08-20T07:33:18;96795.31;;;27.49;50.29
16461;BME280;8341;42.048;24.650;2022-08-20T07:35:45;96796.59;;;27.58;50.26
16461;BME280;8341;42.048;24.650;2022-08-20T07:38:14;96783.84;;;27.66;49.80
16461;BME280;8341;42.048;24.650;2022-08-20T07:40:44;96787.47;;;27.78;50.74
16461;BME280;8341;42.048;24.650;2022-08-20T07:43:13;96784.31;;;27.84;50.33
16461;BME280;8341;42.048;24.650;2022-08-20T07:45:40;96776.19;;;27.88;49.94
16461;BME280;8341;42.048;24.650;2022-08-20T07:48:10;96780.88;;;28.16;50.25
16461;BME280;8341;42.048;24.650;2022-08-20T07:50:38;96779.69;;;28.31;49.55
16461;BME280;8341;42.048;24.650;2022-08-20T07:53:06;96771.72;;;28.48;48.38
16461;BME280;8341;42.048;24.650;2022-08-20T07:55:33;96774.44;;;28.58;48.07
16461;BME280;8341;42.048;24.650;2022-08-20T07:58:07;96774.44;;;28.58;47.16
16461;BME280;8341;42.048;24.650;2022-08-20T08:00:34;96770.47;;;28.73;47.82
16461;BME280;8341;42.048;24.650;2022-08-20T08:03:01;96773.44;;;28.86;47.20
16461;BME280;8341;42.048;24.650;2022-08-20T08:05:28;96769.88;;;28.97;46.81
16461;BME280;8341;42.048;24.650;2022-08-20T08:07:56;96760.00;;;28.96;46.58
16461;BME280;8341;42.048;24.650;2022-08-20T08:10:23;96762.34;;;29.11;46.88
16461;BME280;8341;42.048;24.650;2022-08-20T08:12:53;96763.09;;;29.24;46.80
16461;BME280;8341;42.048;24.650;2022-08-20T08:15:25;96755.50;;;29.14;46.65
16461;BME280;8341;42.048;24.650;2022-08-20T08:17:54;96755.25;;;29.10;45.79
16461;BME280;8341;42.048;24.650;2022-08-20T08:20:23;96756.75;;;29.23;46.35
16461;BME280;8341;42.048;24.650;2022-08-20T08:22:50;96753.69;;;29.31;46.86
16461;BME280;8341;42.048;24.650;2022-08-20T08:25:18;96744.88;;;29.48;46.90
16461;BME280;8341;42.048;24.650;2022-08-20T08:27:45;96741.56;;;29.51;45.62
16461;BME280;8341;42.048;24.650;2022-08-20T08:30:14;96741.09;;;29.55;46.63
16461;BME280;8341;42.048;24.650;2022-08-20T08:32:43;96733.25;;;29.65;45.96
16461;BME280;8341;42.048;24.650;2022-08-20T08:35:28;96732.50;;;29.76;45.86
16461;BME280;8341;42.048;24.650;2022-08-20T08:37:55;96735.91;;;29.86;45.73
16461;BME280;8341;42.048;24.650;2022-08-20T08:40:22;96734.91;;;29.93;46.14
16461;BME280;8341;42.048;24.650;2022-08-20T08:42:51;96722.13;;;29.79;45.86
16461;BME280;8341;42.048;24.650;2022-08-20T08:45:23;96722.66;;;30.00;45.01
16461;BME280;8341;42.048;24.650;2022-08-20T08:47:52;96723.44;;;29.89;46.87
16461;BME280;8341;42.048;24.650;2022-08-20T08:50:24;96724.06;;;30.13;45.39
16461;BME280;8341;42.048;24.650;2022-08-20T08:52:53;96726.09;;;30.24;46.35
16461;BME280;8341;42.048;24.650;2022-08-20T08:55:24;96718.63;;;30.28;45.42
16461;BME280;8341;42.048;24.650;2022-08-20T08:57:52;96712.22;;;30.40;45.06
16461;BME280;8341;42.048;24.650;2022-08-20T09:00:21;96716.34;;;30.64;45.09
16461;BME280;8341;42.048;24.650;2022-08-20T09:02:57;96711.66;;;30.55;43.23
16461;BME280;8341;42.048;24.650;2022-08-20T09:05:29;96704.53;;;30.54;44.11
16461;BME280;8341;42.048;24.650;2022-08-20T09:07:58;96712.69;;;30.48;43.79
16461;BME280;8341;42.048;24.650;2022-08-20T09:10:28;96706.03;;;30.55;43.27
16461;BME280;8341;42.048;24.650;2022-08-20T09:12:54;96701.97;;;30.58;44.00
16461;BME280;8341;42.048;24.650;2022-08-20T09:15:21;96706.78;;;30.69;43.57
16461;BME280;8341;42.048;24.650;2022-08-20T09:17:48;96700.66;;;30.86;44.39
16461;BME280;8341;42.048;24.650;2022-08-20T09:20:17;96700.41;;;31.07;43.89
16461;BME280;8341;42.048;24.650;2022-08-20T09:22:44;96696.44;;;31.26;43.06
16461;BME280;8341;42.048;24.650;2022-08-20T09:25:11;96686.63;;;31.13;42.82
16461;BME280;8341;42.048;24.650;2022-08-20T09:27:37;96693.50;;;31.24;42.90
16461;BME280;8341;42.048;24.650;2022-08-20T09:30:05;96680.88;;;31.38;43.50
16461;BME280;8341;42.048;24.650;2022-08-20T09:32:32;96686.22;;;31.46;42.57
16461;BME280;8341;42.048;24.650;2022-08-20T09:34:59;96677.16;;;31.47;43.20
16461;BME280;8341;42.048;24.650;2022-08-20T09:37:29;96671.19;;;31.55;43.00
16461;BME280;8341;42.048;24.650;2022-08-20T09:39:56;96668.75;;;31.63;42.98
16461;BME280;8341;42.048;24.650;2022-08-20T09:42:26;96671.03;;;31.67;42.39
16461;BME280;8341;42.048;24.650;2022-08-20T09:44:53;96666.94;;;31.83;43.12
16461;BME280;8341;42.048;24.650;2022-08-20T09:47:21;96658.97;;;31.93;42.06
16461;BME280;8341;42.048;24.650;2022-08-20T09:49:48;96658.72;;;32.03;41.46
16461;BME280;8341;42.048;24.650;2022-08-20T09:52:19;96652.06;;;31.96;42.64
16461;BME280;8341;42.048;24.650;2022-08-20T09:54:48;96648.28;;;32.05;42.27
16461;BME280;8341;42.048;24.650;2022-08-20T09:57:16;96648.31;;;32.21;40.66
16461;BME280;8341;42.048;24.650;2022-08-20T09:59:44;96649.22;;;32.10;40.70
16461;BME280;8341;42.048;24.650;2022-08-20T10:02:14;96642.50;;;32.17;40.42
16461;BME280;8341;42.048;24.650;2022-08-20T10:04:40;96643.88;;;32.32;40.27
16461;BME280;8341;42.048;24.650;2022-08-20T10:07:07;96633.69;;;32.40;40.63
16461;BME280;8341;42.048;24.650;2022-08-20T10:09:35;96631.97;;;32.64;40.34
16461;BME280;8341;42.048;24.650;2022-08-20T10:12:04;96630.72;;;32.67;40.31
16461;BME280;8341;42.048;24.650;2022-08-20T10:14:31;96620.50;;;32.92;40.56
16461;BME280;8341;42.048;24.650;2022-08-20T10:16:59;96619.75;;;33.07;40.23
16461;BME280;8341;42.048;24.650;2022-08-20T10:19:27;96624.50;;;33.18;39.00
16461;BME280;8341;42.048;24.650;2022-08-20T10:21:55;96622.41;;;33.36;38.09
16461;BME280;8341;42.048;24.650;2022-08-20T10:24:23;96624.28;;;33.47;36.63
16461;BME280;8341;42.048;24.650;2022-08-20T10:26:53;96624.00;;;33.57;36.79
16461;BME280;8341;42.048;24.650;2022-08-20T10:29:21;96624.03;;;33.41;36.31
16461;BME280;8341;42.048;24.650;2022-08-20T10:31:48;96619.81;;;33.58;37.17
16461;BME280;8341;42.048;24.650;2022-08-20T10:34:15;96616.09;;;33.71;36.40
16461;BME280;8341;42.048;24.650;2022-08-20T10:36:41;96621.22;;;33.74;37.55
16461;BME280;8341;42.048;24.650;2022-08-20T10:39:09;96610.38;;;33.86;36.12
16461;BME280;8341;42.048;24.650;2022-08-20T10:41:36;96611.03;;;34.03;36.49
16461;BME280;8341;42.048;24.650;2022-08-20T10:44:03;96601.88;;;33.86;36.34
16461;BME280;8341;42.048;24.650;2022-08-20T10:46:31;96598.88;;;33.82;36.80
16461;BME280;8341;42.048;24.650;2022-08-20T10:48:58;96592.91;;;34.10;37.07
16461;BME280;8341;42.048;24.650;2022-08-20T10:51:25;96588.03;;;34.30;36.73
16461;BME280;8341;42.048;24.650;2022-08-20T10:53:52;96586.13;;;33.81;35.95
16461;BME280;8341;42.048;24.650;2022-08-20T10:56:19;96590.97;;;33.96;36.07
16461;BME280;8341;42.048;24.650;2022-08-20T10:58:45;96585.13;;;34.28;36.77
16461;BME280;8341;42.048;24.650;2022-08-20T11:01:12;96591.81;;;34.36;35.68
16461;BME280;8341;42.048;24.650;2022-08-20T11:03:40;96593.13;;;34.33;36.93
16461;BME280;8341;42.048;24.650;2022-08-20T11:06:07;96580.47;;;34.36;35.21
16461;BME280;8341;42.048;24.650;2022-08-20T11:08:34;96569.09;;;34.34;34.72
16461;BME280;8341;42.048;24.650;2022-08-20T11:11:01;96578.44;;;34.39;34.37
16461;BME280;8341;42.048;24.650;2022-08-20T11:13:28;96567.91;;;34.59;34.62
16461;BME280;8341;42.048;24.650;2022-08-20T11:15:55;96566.31;;;34.74;34.36
16461;BME280;8341;42.048;24.650;2022-08-20T11:18:21;96563.97;;;34.68;33.52
16461;BME280;8341;42.048;24.650;2022-08-20T11:20:50;96558.03;;;34.60;33.01
16461;BME280;8341;42.048;24.650;2022-08-20T11:23:16;96548.09;;;34.59;33.87
16461;BME280;8341;42.048;24.650;2022-08-20T11:25:43;96554.94;;;34.34;33.41
16461;BME280;8341;42.048;24.650;2022-08-20T11:28:10;96549.06;;;34.28;33.78
16461;BME280;8341;42.048;24.650;2022-08-20T11:30:38;96550.13;;;34.56;34.32
16461;BME280;8341;42.048;24.650;2022-08-20T11:33:05;96547.22;;;34.74;33.96
16461;BME280;8341;42.048;24.650;2022-08-20T11:35:33;96540.59;;;34.87;33.33
16461;BME280;8341;42.048;24.650;2022-08-20T11:38:02;96528.09;;;34.75;33.24
16461;BME280;8341;42.048;24.650;2022-08-20T11:40:29;96541.56;;;34.96;34.21
16461;BME280;8341;42.048;24.650;2022-08-20T11:42:57;96530.25;;;35.15;33.01
16461;BME280;8341;42.048;24.650;2022-08-20T11:45:24;96531.69;;;35.16;32.84
16461;BME280;8341;42.048;24.650;2022-08-20T11:47:51;96522.59;;;35.00;32.64
16461;BME280;8341;42.048;24.650;2022-08-20T11:50:19;96525.09;;;35.32;33.06
16461;BME280;8341;42.048;24.650;2022-08-20T20:14:14;96778.59;;;25.19;73.30
16461;BME280;8341;42.048;24.650;2022-08-20T20:16:42;96784.03;;;25.17;71.55
16461;BME280;8341;42.048;24.650;2022-08-20T20:19:10;96784.34;;;25.21;73.73
16461;BME280;8341;42.048;24.650;2022-08-20T20:21:39;96783.53;;;25.02;72.78
16461;BME280;8341;42.048;24.650;2022-08-20T20:24:08;96792.97;;;25.06;72.85
16461;BME280;8341;42.048;24.650;2022-08-20T20:26:37;96795.16;;;25.08;73.26
16461;BME280;8341;42.048;24.650;2022-08-20T20:29:08;96795.03;;;25.15;72.84
16461;BME280;8341;42.048;24.650;2022-08-20T20:31:44;96784.75;;;25.18;73.07
16461;BME280;8341;42.048;24.650;2022-08-20T20:34:14;96802.25;;;25.18;72.85
16461;BME280;8341;42.048;24.650;2022-08-20T20:36:44;96803.53;;;25.08;74.15
16461;BME280;8341;42.048;24.650;2022-08-20T20:39:25;96795.41;;;25.02;74.61
16461;BME280;8341;42.048;24.650;2022-08-20T20:41:54;96770.63;;;25.06;74.40
16461;BME280;8341;42.048;24.650;2022-08-20T20:44:24;96744.97;;;24.81;77.79
16461;BME280;8341;42.048;24.650;2022-08-20T20:46:55;96776.59;;;24.93;76.11
16461;BME280;8341;42.048;24.650;2022-08-20T20:49:25;96801.13;;;24.95;76.33
16461;BME280;8341;42.048;24.650;2022-08-20T20:51:56;96812.16;;;25.02;77.56
16461;BME280;8341;42.048;24.650;2022-08-20T20:54:27;96789.81;;;24.93;79.33
16461;BME280;8341;42.048;24.650;2022-08-20T20:57:00;96761.00;;;24.37;76.97
16461;BME280;8341;42.048;24.650;2022-08-20T20:59:28;96733.63;;;24.25;85.94
16461;BME280;8341;42.048;24.650;2022-08-20T21:01:58;96696.94;;;24.02;83.14
16461;BME280;8341;42.048;24.650;2022-08-20T21:04:25;96687.88;;;23.85;81.99
16461;BME280;8341;42.048;24.650;2022-08-20T21:31:57;96752.50;;;22.27;99.88
16461;BME280;8341;42.048;24.650;2022-08-20T21:34:24;96743.28;;;22.17;100.00
16461;BME280;8341;42.048;24.650;2022-08-20T21:36:51;96753.50;;;22.15;100.00
16461;BME280;8341;42.048;24.650;2022-08-20T21:39:18;96750.09;;;22.24;100.00
16461;BME280;8341;42.048;24.650;2022-08-20T21:41:45;96736.47;;;22.11;100.00
16461;BME280;8341;42.048;24.650;2022-08-20T21:44:18;96749.22;;;22.14;100.00
16461;BME280;8341;42.048;24.650;2022-08-20T21:46:45;96768.91;;;22.01;100.00
16461;BME280;8341;42.048;24.650;2022-08-20T21:49:13;96761.88;;;22.00;100.00
16461;BME280;8341;42.048;24.650;2022-08-20T21:51:40;96784.25;;;22.02;100.00